Boyan Despodov

Scout - Ludogorets
10 Sep 2028
Sonntag
Verarbeitung

Persönlichkeit

Anpassungsfähigkeit (10) Ehrgeiz (7) Kontroverse (14) Loyalität (2) Druck (19) Professionalität (7) Fairness (7) Temperament (5)

Profil

Trainerstil Demokratisch
Lizenz Kontinentale B
Entschlossenheit 6
Menschenführung 8
Motivation 6
Disziplin 9
Arbeitszufriedenheit
100%
Ermüdung
0%
Rolle Scout
Gehalt 44.3K p/W
Vertrag 14.03.2029

Leistung

Verhalten Gut
Trainingseffektivität
41%
Spielerentwicklung
40%
Verletzungsprävention
55%
Taktische Umsetzung
35%

Letzte Ereignisse

Nahm an einer Scouting-Besprechung teil jetzt
Empfahl ein Transferziel jetzt
Spieler begutachtet 7T her
Nahm an einer Scouting-Besprechung teil 7T her
Empfahl ein Transferziel 7T her
Empfahl ein Transferziel 7T her
Empfahl ein Transferziel 7T her
Legte dem Vorstand ein Dossier vor 7T her

Aktuell beobachtet

205
Spieler Verein Status Fähigkeit Vertrauen Beobachtet Zuletzt beobachtet Letzte Stimme
Lewis Cook Blackburn Rovers Aktiv 155 / 161 40% 1 28.08.2028 -
Anton Stach Reading Aktiv 150 / 151 40% 1 28.08.2028 -
David Carmo Olympiacos Verloren 147 / 155 40% 1 28.08.2028 -
Sandi Lovrić Juve Stabia Aktiv 147 / 140 40% 2 14.08.2028 -
Michele Collocolo Cremonese Aktiv 139 / 138 40% 1 14.08.2028 -
Angeliño AS Roma Aktiv 161 / 155 40% 2 12.08.2028 -
Tommaso Barbieri Cremonese Aktiv 145 / 141 40% 2 12.08.2028 -
Nathan Patterson Torino Aktiv 140 / 146 40% 1 12.08.2028 -
Daichi Kamada Luton Town Aktiv 143 / 155 40% 2 08.08.2028 -
Evander Wolverhampton Aktiv 149 / 147 40% 3 08.08.2028 -
Sean Longstaff Leeds United Aktiv 144 / 142 40% 1 08.08.2028 -
Japhet Tanganga Sheffield United Aktiv 148 / 136 40% 3 07.08.2028 -
Antonino Gallo Bari Aktiv 152 / 146 40% 2 07.08.2028 -
Kenny Tete Fulham Aktiv 146 / 139 40% 1 07.08.2028 -
Bobby Thomas Grimsby Town Aktiv 147 / 142 40% 1 04.08.2028 -
Rafa Marín Pisa Aktiv 151 / 152 40% 1 04.08.2028 -
Bafodé Diakité Plymouth Argyle Aktiv 154 / 144 40% 3 03.08.2028 -
Devyne Rensch Virtus Entella Aktiv 159 / 159 40% 2 03.08.2028 -
Gianluca Busio Venezia Aktiv 144 / 139 40% 2 02.08.2028 -
Joe Rodon Blackburn Rovers Aktiv 152 / 151 40% 4 02.08.2028 -
Giovanni Leoni Lincoln City Aktiv 146 / 156 40% 3 01.08.2028 -
Enrico Delprato Parma Aktiv 154 / 154 40% 1 01.08.2028 -
Thierry Rendall Correia Venezia Aktiv 148 / 150 40% 1 31.07.2028 -
Toby Collyer West Bromwich Albion Aktiv 141 / 142 40% 6 29.07.2028 -
Jhon Solís Birmingham Aktiv 141 / 138 40% 8 29.07.2028 -
Eivind Helland AC Milan Aktiv 140 / 149 40% 3 26.07.2028 -
Dara O'Shea Ipswich Town Aktiv 138 / 145 40% 1 26.07.2028 -
James Justin Leeds United Aktiv 145 / 144 40% 3 24.07.2028 -
Omar Alderete Sunderland Aktiv 163 / 152 40% 1 24.07.2028 -
Sander Berge Derby County Aktiv 149 / 155 40% 2 12.07.2028 -
Max Bird Birmingham Aktiv 137 / 149 40% 2 12.07.2028 -
Callum Brittain Middlesbrough Aktiv 142 / 133 40% 3 08.07.2028 -
Charlie Hughes Chesterfield Aktiv 141 / 142 40% 7 08.07.2028 -
Tim Iroegbunam Peterborough United Aktiv 142 / 145 40% 4 06.07.2028 -
Luke McNally Bristol City Aktiv 135 / 130 40% 2 06.07.2028 -
Derry Murkin Derby County Aktiv 141 / 135 40% 1 05.07.2028 -
Yassir Zabiri Stade Rennais Aktiv 138 / 148 40% 1 04.07.2028 -
Armando Broja Burnley Aktiv 143 / 148 40% 1 04.07.2028 -
Ilyas Ansah Hull City Aktiv 134 / 137 40% 1 04.07.2028 -
Lucas Pires Wolverhampton Aktiv 134 / 130 40% 1 04.07.2028 -
Harry Clarke Preston Aktiv 140 / 130 40% 2 26.06.2028 -
Wilfried Gnonto Leeds United Aktiv 147 / 137 40% 1 12.06.2028 -
Oliver Dovin Coventry City Aktiv 143 / 137 40% 1 01.06.2028 -
Robin Roefs Sunderland Aktiv 156 / 150 40% 1 01.06.2028 -
Daniel Peretz Wolverhampton Aktiv 156 / 142 40% 1 01.06.2028 -
Tammy Abraham Aston Villa Aktiv 156 / 148 40% 1 31.05.2028 -
Lautaro Morales Lanús Aktiv 150 / 141 40% 1 31.05.2028 -
Dean Henderson Crystal Palace Aktiv 153 / 157 40% 1 31.05.2028 -
Adrian Šemper Al-Fateh Aktiv 134 / 125 40% 1 31.05.2028 -
Jacques Ekomié Wrexham Aktiv 139 / 147 40% 4 30.05.2028 -
Juanlu Bournemouth Aktiv 153 / 160 40% 1 30.05.2028 -
Georgie Gent Barnsley Aktiv 122 / 115 40% 4 28.05.2028 -
Thierry Small Preston Aktiv 132 / 129 40% 3 28.05.2028 -
Justin Devenny Stoke City Aktiv 129 / 133 40% 8 27.05.2028 -
Reuell Walters Luton Town Aktiv 131 / 133 40% 4 27.05.2028 -
Carlos Baleba Norwich City Aktiv 160 / 158 40% 2 26.05.2028 -
Brad Hills Stockport County Aktiv 116 / 129 40% 3 24.05.2028 -
James Dornelly Peterborough United Aktiv 115 / 118 40% 2 22.05.2028 -
Shea Charles Southampton Aktiv 153 / 146 40% 2 20.05.2028 -
Kellen Fisher Norwich City Aktiv 136 / 130 40% 3 17.05.2028 -
Terry Devlin Portsmouth Aktiv 135 / 137 40% 2 17.05.2028 -
Ayden Heaven Portsmouth Aktiv 150 / 145 40% 3 16.05.2028 -
Josh Nichols Oldham Athletic Aktiv 123 / 120 40% 4 16.05.2028 -
Sydie Peck Swindon Town Aktiv 141 / 130 40% 3 14.05.2028 -
Bosun Lawal Stoke City Aktiv 131 / 138 40% 3 12.05.2028 -
Joshua Quarshie Exeter City Aktiv 125 / 131 40% 2 07.05.2028 -
Andrey Santos Bolton Wanderers Aktiv 147 / 142 40% 5 05.05.2028 -
Calvin Ramsay Bristol Rovers Aktiv 126 / 134 40% 1 03.05.2028 -
Harvey Vale Queens Park Rangers Aktiv 127 / 137 40% 5 02.05.2028 -
Hayden Matthews Tranmere Rovers Aktiv 108 / 111 40% 1 02.05.2028 -
Matteo Prati Cagliari Aktiv 145 / 133 40% 2 30.04.2028 -
Lamare Bogarde Reading Aktiv 139 / 131 40% 3 26.04.2028 -
Honest Ahanor Atalanta Aktiv 137 / 150 40% 1 24.04.2028 -
Charlie Webster Burton Albion Aktiv 119 / 125 40% 1 24.04.2028 -
Alfie Gilchrist West Bromwich Albion Aktiv 136 / 137 40% 3 17.04.2028 -
Filip Lissah Shrewsbury Town Aktiv 118 / 116 40% 2 16.04.2028 -
Max Conway Bolton Wanderers Aktiv 119 / 127 40% 4 15.04.2028 -
Femi Seriki Sheffield United Aktiv 129 / 127 40% 1 15.04.2028 -
Max Johnston Derby County Aktiv 142 / 139 40% 2 06.04.2028 -
Esquerdinha Notts County Aktiv 128 / 124 40% 1 06.04.2028 -
Samuel Kalu Botev Plovdiv Aktiv 114 / 117 65% 1 04.01.2028 Befürworten
Damián Fernández Defensa y Justicia Aktiv 137 / 121 40% 2 30.12.2027 -
Marko Grujić Levski Aktiv 128 / 139 40% 1 30.12.2027 -
Ignacio Vázquez Platense Aktiv 136 / 121 40% 6 29.12.2027 -
Marco Di Cesare Racing Club Aktiv 132 / 142 40% 2 29.12.2027 -
Vicente Poggi Godoy Cruz Aktiv 139 / 135 40% 2 29.12.2027 -
Franco Ibarra Rosario Central Aktiv 138 / 119 40% 3 28.12.2027 -
Marquinhos Spartak Moscow Aktiv 135 / 130 40% 2 27.12.2027 -
Teboho Mokoena Mamelodi Sundowns Aktiv 130 / 132 40% 1 26.12.2027 -
Dennis Cirkin Queens Park Rangers Aktiv 137 / 124 40% 1 26.12.2027 -
Ignacio Perruzzi San Lorenzo Aktiv 132 / 134 40% 1 26.12.2027 -
Álex Centelles Levski Aktiv 135 / 115 40% 2 25.12.2027 -
Xaver Schlager Nottingham Forest Aktiv 161 / 150 40% 2 23.12.2027 -
Will Hughes Bloemfontein Celtic Aktiv 137 / 136 40% 2 22.12.2027 -
Emerson Royal Flamengo Aktiv 123 / 118 40% 1 20.12.2027 -
Gastón Benedetti Estudiantes Aktiv 134 / 130 40% 1 20.12.2027 -
Finn Azaz Southampton Aktiv 128 / 126 40% 1 16.12.2027 -
Esequiel Barco Spartak Moscow Aktiv 151 / 141 40% 4 15.12.2027 -
Jhon Jhon Zenit Aktiv 134 / 143 40% 1 15.12.2027 -
Jean-Philippe Gbamin CSKA Sofia Aktiv 137 / 138 40% 1 12.12.2027 -
Matías Galarza Talleres Aktiv 130 / 117 40% 1 12.12.2027 -
Gastón Hernández San Lorenzo Aktiv 118 / 122 40% 4 09.12.2027 -
Santiago González Tigre Aktiv 142 / 118 40% 2 09.12.2027 -
Vitaly Janelt Derby County Aktiv 152 / 151 40% 2 06.12.2027 -
Musa Barrow ES Setif Aktiv 139 / 156 40% 1 06.12.2027 -
Exequiel Palacios Lazio Aktiv 155 / 151 40% 3 03.12.2027 -
Neco Williams Wrexham Aktiv 150 / 154 40% 1 03.12.2027 -
Timothy Castagne Stoke City Aktiv 143 / 134 40% 1 02.12.2027 -
Hidemasa Morita Hull City Aktiv 147 / 148 40% 1 02.12.2027 -
William Osula Wrexham Aktiv 137 / 145 40% 1 30.11.2027 -
Lucas Carrizo Newell's Old Boys Aktiv 117 / 138 40% 3 27.11.2027 -
Igor Burnley Aktiv 146 / 150 40% 2 27.11.2027 -
Reda Khadra Qarabag Aktiv 132 / 148 40% 2 26.11.2027 -
Manuel Ugarte Leicester City Aktiv 147 / 146 40% 4 26.11.2027 -
César Pérez Defensa y Justicia Aktiv 140 / 132 40% 2 25.11.2027 -
Kasey McAteer Barnsley Aktiv 141 / 129 40% 2 24.11.2027 -
Ben Gannon Doak Charlton Athletic Aktiv 150 / 151 40% 2 24.11.2027 -
Jaidon Anthony Derby County Aktiv 147 / 135 40% 2 23.11.2027 -
Harry Wilson Leeds United Aktiv 151 / 141 40% 2 23.11.2027 -
Juan Carlos Portillo River Plate Aktiv 116 / 137 40% 4 22.11.2027 -
Koffi Kouao Neftchi Aktiv 127 / 116 40% 1 22.11.2027 -
Nazareno Colombo Racing Club Aktiv 114 / 132 40% 1 22.11.2027 -
André Wolverhampton Aktiv 158 / 157 40% 2 21.11.2027 -
Fer López Wolverhampton Aktiv 138 / 134 40% 2 20.11.2027 -
Hannibal Burnley Aktiv 131 / 141 40% 1 20.11.2027 -
Marcus Tavernier Bournemouth Aktiv 158 / 152 40% 1 20.11.2027 -
Ismaël Bennacer Boca Juniors Aktiv 138 / 140 40% 5 18.11.2027 -
Bruno Leyes Godoy Cruz Aktiv 118 / 140 40% 1 14.11.2027 -
Rico Henry River Plate Aktiv 129 / 136 40% 6 13.11.2027 -
Dwight McNeil Crystal Palace Aktiv 136 / 152 40% 1 13.11.2027 -
Federico Navarro Rosario Central Aktiv 141 / 121 40% 2 02.11.2027 -
Santiago Núñez Estudiantes Aktiv 116 / 133 40% 1 01.11.2027 -
Jack McGlynn Stoke City Aktiv 145 / 129 40% 2 31.10.2027 -
Marcelo Allende Mamelodi Sundowns Aktiv 123 / 135 40% 1 27.10.2027 -
Aarón Quiros Vélez Aktiv 138 / 143 40% 2 24.10.2027 -
Joaquín García Vélez Aktiv 122 / 141 40% 1 24.10.2027 -
Emanuel Mammana Vélez Aktiv 128 / 136 40% 1 23.10.2027 -
Marco Pellegrino Boca Juniors Aktiv 139 / 135 40% 1 23.10.2027 -
Gonzalo Montiel River Plate Aktiv 119 / 137 40% 1 19.10.2027 -
Felipe Peña Biafore Lanús Aktiv 115 / 113 40% 2 17.10.2027 -
Jherson Mosquera Newell's Old Boys Aktiv 112 / 131 40% 1 12.10.2027 -
Emanuel Coronel Rosario Central Aktiv 114 / 126 40% 1 10.10.2027 -
Agustín Cardozo Lanús Aktiv 132 / 142 40% 1 09.10.2027 -
Lautaro Di Lollo Boca Juniors Aktiv 138 / 134 40% 1 08.10.2027 -
Sasha Marcich Lanús Aktiv 123 / 118 40% 1 05.10.2027 -
Tomáš Suslov Hellas Verona Aktiv 140 / 138 40% 1 17.08.2027 -
Billy Gilmour Napoli Aktiv 145 / 150 40% 1 17.08.2027 -
André-Franck Zambo Anguissa Napoli Aktiv 159 / 163 40% 2 11.08.2027 -
Mattia Zaccagni Lazio Aktiv 161 / 158 40% 1 11.08.2027 -
Alessio Zerbin Frosinone Aktiv 132 / 134 40% 1 04.08.2027 -
Oladapo Afolayan Blackburn Rovers Aktiv 134 / 116 40% 1 04.08.2027 -
Ilias Chair Queens Park Rangers Aktiv 139 / 129 40% 1 31.07.2027 -
Tatsuhiro Sakamoto Coventry City Aktiv 132 / 125 40% 1 31.07.2027 -
Andre Brooks Sheffield United Aktiv 139 / 127 40% 1 29.07.2027 -
Isaiah Jones Luton Town Aktiv 132 / 127 40% 2 27.07.2027 -
Oliver Skipp Leicester City Aktiv 131 / 126 40% 1 27.07.2027 -
Derensili Sanches Fernandes Huddersfield Town Aktiv 134 / 137 40% 1 25.07.2027 -
Matthew Targett Hull City Aktiv 126 / 142 40% 4 21.07.2027 -
Harrison Burrows Sheffield United Aktiv 133 / 122 40% 1 21.07.2027 -
Ronnie Edwards Queens Park Rangers Aktiv 129 / 126 40% 1 15.07.2027 -
Welington Southampton Aktiv 138 / 129 40% 1 15.07.2027 -
Matt Clarke Derby County Aktiv 123 / 131 40% 2 13.07.2027 -
Mario Pašalić Atalanta Aktiv 159 / 138 40% 1 06.07.2027 -
Ryoya Morishita Blackburn Rovers Aktiv 140 / 132 40% 1 06.07.2027 -
Lewis Gibson Preston Aktiv 120 / 129 40% 1 04.07.2027 -
Lewis O'Brien Wrexham Aktiv 123 / 120 40% 1 02.07.2027 -
Caspar Jander Southampton Aktiv 127 / 131 40% 1 28.06.2027 -
Xande Spartak 1918 Aktiv 103 / 100 58% 1 14.06.2027 -
Mirlind Daku Spartak Moscow Aktiv 125 / 140 40% 1 14.06.2027 -
Mustapha Sangaré Levski Aktiv 106 / 121 58% 1 01.06.2027 Befürworten
Kyle Walker-Peters West Ham United Aktiv 130 / 148 40% 1 31.05.2027 -
Marcus Ifill Crewe Alexandra Aktiv 96 / 114 40% 1 19.05.2027 -
Lewis Bate Stockport County Aktiv 125 / 126 40% 1 19.05.2027 -
Oliver Arblaster Sheffield United Aktiv 135 / 126 40% 3 17.05.2027 -
Romano Floriani Mussolini Blackpool Aktiv 121 / 132 40% 1 17.05.2027 -
Habib Diarra Sunderland Aktiv 145 / 145 40% 1 14.05.2027 -
Eneko Astigarraga Real Sociedad Aktiv 107 / 104 40% 1 13.05.2027 -
Ethan Pye Stockport County Aktiv 112 / 127 40% 1 09.05.2027 -
Samuel Justo Sporting CP Aktiv 107 / 105 40% 2 01.05.2027 -
Brando Moruzzi Cittadella Aktiv 107 / 116 40% 1 25.04.2027 -
Matteo Francesconi Cesena Aktiv 129 / 124 40% 1 20.04.2027 -
Mandla Kekana Ajax Cape Town Aktiv 108 / 95 40% 1 20.04.2027 -
Riley Owen Stevenage Aktiv 112 / 118 40% 1 18.04.2027 -
Gonçalo Oliveira Benfica Aktiv 114 / 113 40% 1 18.04.2027 -
Federico Zuccon Foggia Aktiv 117 / 124 40% 1 12.04.2027 -
Musab Al-Juwayr Al-Qadisiyah Aktiv 132 / 123 40% 1 08.04.2027 -
Junior Mwanga Le Havre AC Aktiv 121 / 121 40% 1 04.04.2027 -
Charlie Savage Reading Aktiv 110 / 118 40% 1 30.03.2027 -
Andrey Langovich Rostov Aktiv 121 / 127 40% 1 28.03.2027 -
David Kokoev Yenisey Aktiv 113 / 107 40% 1 25.03.2027 -
Rushwin Dortley Kaizer Chiefs Aktiv 126 / 117 40% 2 21.03.2027 -
Juraj Badelj Aris Aktiv 117 / 120 40% 1 20.03.2027 -
Veldin Hodža Rubin Aktiv 119 / 122 40% 1 20.03.2027 -
Khama Dolly Black Aces Aktiv 109 / 99 40% 1 17.03.2027 -
Ousseynou Seck Randers Aktiv 125 / 133 40% 1 01.01.2027 -
Sandi Zajc NK Domzale Aktiv 110 / 117 40% 1 31.12.2026 -
Diego Medina CSKA 1948 Aktiv 110 / 116 40% 1 20.12.2026 -
Ítalo Ural Aktiv 111 / 101 40% 1 16.12.2026 -
Ognjen Gašević CSKA 1948 Aktiv 113 / 119 40% 1 16.12.2026 -
Metinho Basel Aktiv 136 / 124 40% 1 13.12.2026 -
Victor Melekhin Rostov Aktiv 110 / 121 40% 1 12.12.2026 -
Thiago Acosta River Plate Aktiv 123 / 99 40% 1 10.10.2026 -
Lucas Silva River Plate Aktiv 109 / 103 40% 1 19.08.2026 -
Mihail Polendakov Sheffield United Aktiv 88 / 95 40% 1 19.08.2026 -
Radoslav Kirilov Levski Aktiv 128 / 110 58% 1 17.08.2026 Befürworten